createdAt,value
2019-02-04T00:00:40.376Z,101219.78
2019-02-04T00:03:14.032Z,101228.56
2019-02-04T00:05:47.097Z,101229.48
2019-02-04T00:08:20.039Z,101228.13
2019-02-04T00:10:53.079Z,101232.23
2019-02-04T00:13:26.049Z,101231.62
2019-02-04T00:15:59.376Z,101236.41
2019-02-04T00:18:32.069Z,101243.34
2019-02-04T00:21:05.054Z,101247.19
2019-02-04T00:23:38.023Z,101247.83
2019-02-04T00:26:11.053Z,101254.73
2019-02-04T00:28:43.913Z,101262.20
2019-02-04T00:31:16.839Z,101261.55
2019-02-04T00:33:49.869Z,101260.01
2019-02-04T00:36:22.429Z,101265.48
2019-02-04T00:38:55.136Z,101270.47
2019-02-04T00:41:28.696Z,101271.63
2019-02-04T00:44:02.027Z,101272.38
2019-02-04T00:46:36.022Z,101273.90
2019-02-04T00:49:09.099Z,101275.69
2019-02-04T00:51:43.752Z,101279.31
2019-02-04T00:54:19.308Z,101282.59
2019-02-04T00:56:52.324Z,101287.44
2019-02-04T00:59:25.100Z,101285.52
2019-02-04T01:01:57.974Z,101291.53
2019-02-04T01:04:30.855Z,101301.77
2019-02-04T01:07:03.427Z,101296.80
2019-02-04T01:09:36.764Z,101303.12
2019-02-04T01:12:09.334Z,101298.22
2019-02-04T01:14:41.933Z,101303.19
2019-02-04T01:17:15.105Z,101304.61
2019-02-04T01:19:48.100Z,101308.55
2019-02-04T01:22:20.906Z,101312.11
2019-02-04T01:24:53.658Z,101317.39
2019-02-04T01:27:26.100Z,101311.41
2019-02-04T01:29:59.354Z,101311.41
2019-02-04T01:32:32.021Z,101328.10
2019-02-04T01:35:04.674Z,101328.23
2019-02-04T01:37:36.140Z,101330.81
2019-02-04T01:40:14.909Z,101334.66
2019-02-04T01:42:47.676Z,101340.70
2019-02-04T01:45:20.110Z,101343.58
2019-02-04T01:47:53.338Z,101343.58
2019-02-04T01:50:26.936Z,101345.31
2019-02-04T01:52:59.545Z,101349.50
2019-02-04T01:55:33.114Z,101351.14
2019-02-04T01:58:05.941Z,101357.75
2019-02-04T02:00:41.073Z,101365.98
2019-02-04T02:03:14.045Z,101364.67
2019-02-04T02:05:47.106Z,101363.09
2019-02-04T02:08:20.031Z,101370.77
2019-02-04T02:10:52.935Z,101369.86
2019-02-04T02:13:25.519Z,101367.50
2019-02-04T02:15:57.714Z,101364.34
2019-02-04T02:18:30.298Z,101368.06
2019-02-04T02:21:03.109Z,101364.95
2019-02-04T02:23:36.081Z,101367.68
2019-02-04T02:26:09.120Z,101369.41
2019-02-04T02:28:42.154Z,101375.91
2019-02-04T02:31:15.082Z,101374.88
2019-02-04T02:33:48.044Z,101381.50
2019-02-04T02:36:20.886Z,101381.16
2019-02-04T02:38:53.482Z,101379.02
2019-02-04T02:41:25.997Z,101376.94
2019-02-04T02:43:59.341Z,101381.72
2019-02-04T02:46:32.551Z,101393.69
2019-02-04T02:49:05.214Z,101397.00
2019-02-04T02:51:37.929Z,101397.00
2019-02-04T02:54:10.391Z,101407.33
2019-02-04T02:56:43.097Z,101409.48
2019-02-04T02:59:15.929Z,101416.41
2019-02-04T03:01:48.726Z,101415.28
2019-02-04T03:04:20.288Z,101416.63
2019-02-04T03:06:53.108Z,101421.31
2019-02-04T03:09:26.103Z,101431.25
2019-02-04T03:11:59.074Z,101438.38
2019-02-04T03:14:32.052Z,101438.14
2019-02-04T03:17:04.873Z,101439.66
2019-02-04T03:19:37.396Z,101447.05
2019-02-04T03:22:10.096Z,101449.64
2019-02-04T03:24:42.893Z,101452.86
2019-02-04T03:27:15.633Z,101460.89
2019-02-04T03:29:48.109Z,101462.62
2019-02-04T03:32:20.752Z,101462.62
2019-02-04T03:34:52.713Z,101467.19
2019-02-04T03:37:25.344Z,101472.61
2019-02-04T03:39:58.030Z,101468.75
2019-02-04T03:42:30.336Z,101476.95
2019-02-04T03:45:03.074Z,101487.35
2019-02-04T03:47:36.050Z,101490.56
2019-02-04T03:50:10.832Z,101492.08
2019-02-04T03:52:43.338Z,101494.20
2019-02-04T03:55:18.078Z,101494.32
2019-02-04T03:57:50.993Z,101491.53
2019-02-04T04:00:31.730Z,101492.16
2019-02-04T04:03:03.290Z,101498.27
2019-02-04T04:05:36.372Z,101502.56
2019-02-04T04:08:09.026Z,101502.09
2019-02-04T04:10:42.089Z,101501.33
2019-02-04T04:13:14.923Z,101502.83
2019-02-04T04:15:48.339Z,101507.70
2019-02-04T04:18:21.132Z,101510.72
2019-02-04T04:20:53.915Z,101516.14
2019-02-04T04:23:26.340Z,101517.77
2019-02-04T04:25:59.061Z,101521.52
2019-02-04T04:28:32.033Z,101525.61
2019-02-04T04:31:05.135Z,101522.29
2019-02-04T04:33:38.006Z,101518.46
2019-02-04T04:36:10.828Z,101519.27
2019-02-04T04:38:44.342Z,101516.83
2019-02-04T04:41:17.089Z,101522.09
2019-02-04T04:43:50.338Z,101521.86
2019-02-04T04:46:22.908Z,101530.99
2019-02-04T04:48:55.878Z,101535.14
2019-02-04T04:51:28.332Z,101535.25
2019-02-04T04:54:00.956Z,101536.53
2019-02-04T04:56:33.509Z,101547.05
2019-02-04T04:59:06.341Z,101544.58
2019-02-04T05:01:38.298Z,101545.53
2019-02-04T05:04:11.060Z,101546.30
2019-02-04T05:06:43.888Z,101550.87
2019-02-04T05:09:16.871Z,101554.27
2019-02-04T05:11:49.344Z,101559.45
2019-02-04T05:14:22.109Z,101554.89
2019-02-04T05:16:54.904Z,101560.70
2019-02-04T05:19:27.988Z,101565.12
2019-02-04T05:22:00.521Z,101568.37
2019-02-04T05:24:33.934Z,101573.09
2019-02-04T05:27:06.938Z,101572.39
2019-02-04T05:29:39.867Z,101569.22
2019-02-04T05:32:12.898Z,101574.05
2019-02-04T05:34:46.045Z,101575.02
2019-02-04T05:37:19.343Z,101578.85
2019-02-04T05:39:52.034Z,101577.66
2019-02-04T05:42:25.013Z,101579.86
2019-02-04T05:44:57.638Z,101581.10
2019-02-04T05:47:30.372Z,101582.50
2019-02-04T05:50:03.105Z,101582.50
2019-02-04T05:52:35.919Z,101583.50
2019-02-04T05:55:08.923Z,101586.05
2019-02-04T05:57:42.055Z,101589.27
2019-02-04T06:00:26.330Z,101591.74
2019-02-04T06:02:59.054Z,101585.70
2019-02-04T06:05:32.065Z,101592.55
2019-02-04T06:08:05.458Z,101593.36
2019-02-04T06:10:38.353Z,101593.40
2019-02-04T06:13:11.049Z,101598.81
2019-02-04T06:15:44.055Z,101605.08
2019-02-04T06:18:16.871Z,101604.26
2019-02-04T06:20:49.561Z,101615.23
2019-02-04T06:23:22.101Z,101617.03
2019-02-04T06:25:55.017Z,101610.05
2019-02-04T06:28:28.141Z,101615.61
2019-02-04T06:31:01.116Z,101621.86
2019-02-04T06:33:33.910Z,101622.24
2019-02-04T06:36:06.357Z,101624.33
2019-02-04T06:38:39.102Z,101627.06
2019-02-04T06:41:12.074Z,101626.58
2019-02-04T06:43:44.891Z,101633.43
2019-02-04T06:46:17.728Z,101634.52
2019-02-04T06:48:49.291Z,101632.59
2019-02-04T06:51:22.082Z,101640.72
2019-02-04T06:53:55.333Z,101639.59
2019-02-04T06:56:28.344Z,101642.97
2019-02-04T06:59:01.124Z,101646.03
2019-02-04T07:01:34.706Z,101648.11
2019-02-04T07:04:07.101Z,101649.47
2019-02-04T07:06:40.132Z,101649.47
2019-02-04T07:09:15.099Z,101651.71
2019-02-04T07:11:47.891Z,101656.23
2019-02-04T07:14:20.538Z,101665.62
2019-02-04T07:16:53.494Z,101666.36
2019-02-04T07:19:26.092Z,101666.19
2019-02-04T07:21:58.883Z,101664.98
2019-02-04T07:24:42.175Z,101668.29
2019-02-04T07:27:06.352Z,101666.84
2019-02-04T07:29:39.044Z,101671.03
2019-02-04T07:32:11.901Z,101679.99
2019-02-04T07:34:44.415Z,101681.97
2019-02-04T07:37:17.019Z,101682.34
2019-02-04T07:39:49.976Z,101683.18
2019-02-04T07:42:22.587Z,101680.58
2019-02-04T07:44:55.103Z,101678.59
2019-02-04T07:47:27.918Z,101678.59
2019-02-04T07:50:00.570Z,101677.75
2019-02-04T07:52:33.337Z,101678.50
2019-02-04T07:55:06.139Z,101678.50
2019-02-04T07:57:39.353Z,101689.49
2019-02-04T08:00:25.008Z,101689.83
2019-02-04T08:02:57.509Z,101681.72
2019-02-04T08:05:30.098Z,101689.02
2019-02-04T08:08:02.885Z,101685.59
2019-02-04T08:10:35.321Z,101688.20
2019-02-04T08:13:07.700Z,101686.75
2019-02-04T08:15:40.125Z,101685.86
2019-02-04T08:18:13.347Z,101685.09
2019-02-04T08:20:46.026Z,101689.93
2019-02-04T08:23:18.898Z,101691.30
2019-02-04T08:25:51.295Z,101700.76
2019-02-04T08:28:23.898Z,101695.51
2019-02-04T08:30:56.341Z,101696.06
2019-02-04T08:33:29.098Z,101693.24
2019-02-04T08:36:02.389Z,101694.86
2019-02-04T08:38:35.070Z,101693.62
2019-02-04T08:41:07.985Z,101684.37
2019-02-04T08:43:40.454Z,101691.55
2019-02-04T08:46:13.336Z,101690.80
2019-02-04T08:48:46.111Z,101696.42
2019-02-04T08:51:19.020Z,101696.42
2019-02-04T08:53:51.920Z,101692.95
2019-02-04T08:56:24.350Z,101700.39
2019-02-04T08:58:57.415Z,101697.30
2019-02-04T09:01:30.077Z,101695.91
2019-02-04T09:04:02.999Z,101696.03
2019-02-04T09:06:35.915Z,101704.53
2019-02-04T09:09:11.903Z,101706.95
2019-02-04T09:11:45.107Z,101700.68
2019-02-04T09:14:18.047Z,101707.72
2019-02-04T09:16:50.976Z,101697.84
2019-02-04T09:19:24.409Z,101702.67
2019-02-04T09:21:57.055Z,101700.90
2019-02-04T09:24:30.046Z,101697.84
2019-02-04T09:27:02.860Z,101695.89
2019-02-04T09:29:35.402Z,101696.01
2019-02-04T09:32:08.099Z,101698.42
2019-02-04T09:34:41.019Z,101694.92
2019-02-04T09:37:14.042Z,101699.83
2019-02-04T09:39:46.915Z,101698.48
2019-02-04T09:42:19.551Z,101699.69
2019-02-04T09:44:52.089Z,101703.73
2019-02-04T09:47:25.093Z,101706.56
2019-02-04T09:49:58.075Z,101707.30
2019-02-04T09:52:30.927Z,101711.83
2019-02-04T09:55:03.449Z,101703.94
2019-02-04T09:57:36.059Z,101708.50
2019-02-04T10:00:11.480Z,101710.59
2019-02-04T10:02:44.329Z,101707.15
2019-02-04T10:05:18.317Z,101707.15
2019-02-04T10:07:51.316Z,101713.56
2019-02-04T10:10:27.343Z,101714.66
2019-02-04T10:13:00.098Z,101713.12
2019-02-04T10:15:37.111Z,101717.19
2019-02-04T10:18:11.871Z,101714.04
2019-02-04T10:20:44.910Z,101706.23
2019-02-04T10:23:17.844Z,101711.77
2019-02-04T10:25:50.535Z,101708.62
2019-02-04T10:28:23.067Z,101704.10
2019-02-04T10:30:56.333Z,101704.10
2019-02-04T10:33:29.187Z,101703.88
2019-02-04T10:36:02.121Z,101708.64
2019-02-04T10:38:34.924Z,101696.66
2019-02-04T10:41:07.899Z,101696.62
2019-02-04T10:43:40.592Z,101699.50
2019-02-04T10:46:13.151Z,101689.42
2019-02-04T10:48:45.906Z,101689.42
2019-02-04T10:51:18.604Z,101705.16
2019-02-04T10:53:51.066Z,101687.06
2019-02-04T10:56:23.928Z,101687.06
2019-02-04T10:58:56.755Z,101694.58
2019-02-04T11:01:29.379Z,101689.00
2019-02-04T11:04:02.067Z,101685.44
2019-02-04T11:06:35.019Z,101675.06
2019-02-04T11:09:11.023Z,101675.06
2019-02-04T11:11:43.999Z,101665.95
2019-02-04T11:14:17.025Z,101670.87
2019-02-04T11:16:49.988Z,101674.66
2019-02-04T11:19:22.779Z,101667.55
2019-02-04T11:21:55.506Z,101661.50
2019-02-04T11:24:28.138Z,101663.02
2019-02-04T11:27:01.329Z,101663.36
2019-02-04T11:29:37.336Z,101668.59
2019-02-04T11:32:10.095Z,101666.69
2019-02-04T11:34:43.085Z,101668.86
2019-02-04T11:37:16.004Z,101659.22
2019-02-04T11:39:49.115Z,101653.52
2019-02-04T11:42:21.907Z,101652.28
2019-02-04T11:44:54.718Z,101644.92
2019-02-04T11:47:27.343Z,101648.80
2019-02-04T11:50:00.054Z,101654.64
2019-02-04T11:55:04.022Z,101650.47
2019-02-04T11:57:36.861Z,101650.47
2019-02-04T12:00:15.106Z,101657.66
2019-02-04T12:02:48.076Z,101645.96
2019-02-04T12:05:22.325Z,101650.11
2019-02-04T12:07:54.904Z,101637.26
2019-02-04T12:10:42.334Z,101641.71
2019-02-04T12:13:15.336Z,101630.53
2019-02-04T12:15:47.969Z,101630.48
2019-02-04T12:18:20.612Z,101628.55
2019-02-04T12:20:52.270Z,101626.45
2019-02-04T12:23:25.095Z,101618.66
2019-02-04T12:25:57.862Z,101618.66
2019-02-04T12:28:30.591Z,101615.10
2019-02-04T12:31:03.099Z,101620.43
2019-02-04T12:33:35.896Z,101620.43
2019-02-04T12:36:08.329Z,101620.09
2019-02-04T12:38:41.025Z,101624.11
2019-02-04T12:41:13.925Z,101621.91
2019-02-04T12:43:46.459Z,101614.50
2019-02-04T12:46:19.383Z,101610.67
2019-02-04T12:48:52.467Z,101614.67
2019-02-04T12:51:33.139Z,101617.38
2019-02-04T12:53:59.345Z,101613.78
2019-02-04T12:56:32.399Z,101610.26
2019-02-04T12:59:05.696Z,101614.22
2019-02-04T13:01:37.734Z,101609.53
2019-02-04T13:04:09.915Z,101611.43
2019-02-04T13:06:42.023Z,101610.03
2019-02-04T13:09:13.894Z,101614.55
2019-02-04T13:11:45.914Z,101608.55
2019-02-04T13:14:18.582Z,101614.44
2019-02-04T13:16:50.965Z,101591.22
2019-02-04T13:19:22.907Z,101591.22
2019-02-04T13:21:58.142Z,101605.24
2019-02-04T13:24:30.665Z,101609.66
2019-02-04T13:27:01.703Z,101607.23
2019-02-04T13:29:32.735Z,101605.29
2019-02-04T13:32:05.699Z,101595.00
2019-02-04T13:34:36.726Z,101603.59
2019-02-04T13:37:10.584Z,101599.08
2019-02-04T13:39:42.860Z,101583.25
2019-02-04T13:42:14.841Z,101583.25
2019-02-04T13:44:47.466Z,101589.81
2019-02-04T13:47:19.880Z,101592.86
2019-02-04T13:49:52.031Z,101591.33
2019-02-04T13:52:24.081Z,101588.91
2019-02-04T13:54:56.419Z,101592.53
2019-02-04T13:57:29.882Z,101577.82
2019-02-04T14:00:01.921Z,101577.82
2019-02-04T14:02:34.064Z,101576.47
2019-02-04T14:05:06.325Z,101582.34
2019-02-04T14:07:38.871Z,101582.73
2019-02-04T14:10:20.329Z,101582.36
2019-02-04T14:12:52.891Z,101579.42
2019-02-04T14:15:25.428Z,101574.61
2019-02-04T14:17:59.928Z,101578.12
2019-02-04T14:20:31.869Z,101571.22
2019-02-04T14:23:03.936Z,101570.77
2019-02-04T14:25:36.306Z,101567.05
2019-02-04T14:28:31.300Z,101566.77
2019-02-04T14:31:02.900Z,101566.03
2019-02-04T14:33:35.325Z,101562.86
2019-02-04T14:36:07.837Z,101574.20
2019-02-04T14:38:42.066Z,101557.56
2019-02-04T14:41:14.288Z,101562.01
2019-02-04T14:44:40.356Z,101561.63
2019-02-04T14:47:46.433Z,101564.05
2019-02-04T14:51:28.541Z,101563.66
2019-02-04T14:55:21.380Z,101551.84
2019-02-04T14:59:22.856Z,101551.84
2019-02-04T15:03:19.053Z,101562.02
2019-02-04T15:06:55.446Z,101561.55
2019-02-04T15:10:18.831Z,101555.00
2019-02-04T15:13:51.641Z,101566.91
2019-02-04T15:17:53.374Z,101551.84
2019-02-04T15:21:45.375Z,101551.84
2019-02-04T15:25:27.349Z,101558.44
2019-02-04T15:29:22.322Z,101560.07
2019-02-04T15:33:10.882Z,101557.55
2019-02-04T15:37:05.538Z,101550.12
2019-02-04T15:40:44.333Z,101548.23
2019-02-04T15:44:41.105Z,101540.34
2019-02-04T15:48:11.032Z,101536.42
2019-02-04T15:51:29.395Z,101544.53
2019-02-04T15:54:06.861Z,101545.61
2019-02-04T15:56:38.853Z,101549.40
2019-02-04T15:59:11.407Z,101552.14
2019-02-04T16:01:44.378Z,101548.70
2019-02-04T16:04:42.327Z,101554.69
2019-02-04T16:07:15.801Z,101553.19
2019-02-04T16:09:48.782Z,101553.40
2019-02-04T16:12:21.547Z,101547.34
2019-02-04T16:14:53.830Z,101548.52
2019-02-04T16:17:25.847Z,101549.16
2019-02-04T16:19:57.891Z,101550.06
2019-02-04T16:22:30.336Z,101548.73
2019-02-04T16:25:02.874Z,101554.09
2019-02-04T16:27:37.883Z,101545.51
2019-02-04T16:30:16.101Z,101548.80
2019-02-04T16:32:48.333Z,101549.59
2019-02-04T16:35:21.745Z,101546.64
2019-02-04T16:37:52.701Z,101544.41
2019-02-04T16:40:24.439Z,101547.57
2019-02-04T16:42:56.806Z,101545.49
2019-02-04T16:45:28.923Z,101548.20
2019-02-04T16:48:04.326Z,101555.56
2019-02-04T16:50:36.893Z,101555.78
2019-02-04T16:53:10.824Z,101560.77
2019-02-04T16:55:43.103Z,101556.02
2019-02-04T16:58:15.936Z,101558.11
2019-02-04T17:00:48.323Z,101556.27
2019-02-04T17:03:21.353Z,101558.05
2019-02-04T17:05:53.865Z,101559.89
2019-02-04T17:08:25.900Z,101558.57
2019-02-04T17:10:58.847Z,101558.77
2019-02-04T17:13:30.871Z,101558.46
2019-02-04T17:16:02.920Z,101558.22
2019-02-04T17:18:34.900Z,101557.39
2019-02-04T17:21:08.334Z,101556.14
2019-02-04T17:23:40.929Z,101557.89
2019-02-04T17:26:13.332Z,101553.07
2019-02-04T17:28:45.873Z,101548.14
2019-02-04T17:31:18.402Z,101550.22
2019-02-04T17:33:52.557Z,101552.89
2019-02-04T17:36:24.771Z,101551.59
2019-02-04T17:38:56.825Z,101547.03
2019-02-04T17:41:29.150Z,101545.50
2019-02-04T17:44:01.839Z,101541.70
2019-02-04T17:46:33.880Z,101548.17
2019-02-04T17:49:05.854Z,101552.91
2019-02-04T17:51:37.921Z,101550.20
2019-02-04T17:54:10.004Z,101551.05
2019-02-04T17:56:41.847Z,101541.05
2019-02-04T17:59:15.533Z,101549.52
2019-02-04T18:01:47.813Z,101530.56
2019-02-04T18:04:19.877Z,101530.56
2019-02-04T18:06:51.956Z,101542.73
2019-02-04T18:09:24.822Z,101550.44
2019-02-04T18:11:56.854Z,101548.77
2019-02-04T18:14:28.862Z,101554.55
2019-02-04T18:17:00.861Z,101551.11
2019-02-04T18:19:32.835Z,101555.34
2019-02-04T18:22:05.084Z,101559.78
2019-02-04T18:24:39.319Z,101561.55
2019-02-04T18:27:11.868Z,101556.22
2019-02-04T18:29:43.863Z,101556.22
2019-02-04T18:32:16.823Z,101550.93
2019-02-04T18:34:48.890Z,101553.82
2019-02-04T18:37:21.523Z,101554.38
2019-02-04T18:39:53.827Z,101554.58
2019-02-04T18:42:25.890Z,101552.55
2019-02-04T18:44:57.866Z,101551.39
2019-02-04T18:47:29.851Z,101552.03
2019-02-04T18:50:02.874Z,101548.15
2019-02-04T18:52:37.125Z,101550.74
2019-02-04T18:55:12.840Z,101548.47
2019-02-04T18:57:44.938Z,101551.19
2019-02-04T19:00:24.306Z,101552.55
2019-02-04T19:02:56.336Z,101554.66
2019-02-04T19:05:29.317Z,101557.61
2019-02-04T19:08:01.832Z,101549.78
2019-02-04T19:10:33.862Z,101554.26
2019-02-04T19:13:05.889Z,101553.13
2019-02-04T19:15:37.819Z,101547.36
2019-02-04T19:18:18.584Z,101550.30
2019-02-04T19:20:49.863Z,101530.73
2019-02-04T19:23:22.065Z,101530.73
2019-02-04T19:25:54.321Z,101559.54
2019-02-04T19:28:27.322Z,101555.23
2019-02-04T19:31:27.491Z,101555.18
2019-02-04T19:33:59.924Z,101553.42
2019-02-04T19:36:32.318Z,101554.22
2019-02-04T19:39:05.807Z,101549.14
2019-02-04T19:41:37.854Z,101552.53
2019-02-04T19:44:10.338Z,101553.53
2019-02-04T19:46:42.806Z,101553.48
2019-02-04T19:49:15.861Z,101551.42
2019-02-04T19:51:48.324Z,101545.77
2019-02-04T19:54:22.865Z,101539.63
2019-02-04T20:03:22.448Z,101551.30
2019-02-04T20:05:54.914Z,101548.20
2019-02-04T20:08:26.982Z,101545.98
2019-02-04T20:11:02.506Z,101549.58
2019-02-04T20:13:33.323Z,101544.86
2019-02-04T20:16:06.319Z,101553.00
2019-02-04T20:18:38.834Z,101547.48
2019-02-04T20:21:13.305Z,101549.25
2019-02-04T20:23:45.888Z,101548.48
2019-02-04T20:26:18.040Z,101546.19
2019-02-04T20:28:50.802Z,101552.05
2019-02-04T20:31:22.810Z,101556.82
2019-02-04T20:33:55.315Z,101558.81
2019-02-04T20:36:32.377Z,101555.33
2019-02-04T20:39:07.026Z,101543.78
2019-02-04T20:41:39.327Z,101541.77
2019-02-04T20:44:11.432Z,101539.87
2019-02-04T20:46:43.875Z,101538.01
2019-02-04T20:49:15.813Z,101534.03
2019-02-04T20:51:47.837Z,101529.84
2019-02-04T20:54:21.097Z,101531.61
2019-02-04T20:56:53.858Z,101530.09
2019-02-04T20:59:26.360Z,101535.08
2019-02-04T21:01:58.848Z,101534.00
2019-02-04T21:04:30.994Z,101532.07
2019-02-04T21:07:03.325Z,101530.09
2019-02-04T21:09:34.687Z,101524.78
2019-02-04T21:12:06.848Z,101526.77
2019-02-04T21:14:38.853Z,101525.13
2019-02-04T21:17:11.285Z,101528.28
2019-02-04T21:19:44.173Z,101524.30
2019-02-04T21:22:16.441Z,101517.80
2019-02-04T21:24:56.208Z,101525.02
2019-02-04T21:27:22.815Z,101517.07
2019-02-04T21:29:56.341Z,101517.07
2019-02-04T21:32:28.818Z,101520.00
2019-02-04T21:35:00.931Z,101518.86
2019-02-04T21:37:34.092Z,101517.63
2019-02-04T21:40:09.404Z,101509.84
2019-02-04T21:42:41.837Z,101504.42
2019-02-04T21:45:17.857Z,101503.97
2019-02-04T21:47:49.854Z,101506.34
2019-02-04T21:50:24.893Z,101498.20
2019-02-04T21:52:57.315Z,101495.49
2019-02-04T21:55:28.719Z,101493.79
2019-02-04T21:58:00.810Z,101510.12
2019-02-04T22:00:41.834Z,101517.45
2019-02-04T22:03:13.810Z,101507.97
2019-02-04T22:05:45.875Z,101509.55
2019-02-04T22:08:17.818Z,101512.27
2019-02-04T22:10:50.324Z,101512.83
2019-02-04T22:13:23.328Z,101503.95
2019-02-04T22:15:54.947Z,101500.41
2019-02-04T22:18:26.845Z,101505.55
2019-02-04T22:20:58.812Z,101505.08
2019-02-04T22:23:30.862Z,101500.11
2019-02-04T22:26:03.339Z,101505.15
2019-02-04T22:28:35.817Z,101493.12
2019-02-04T22:31:07.831Z,101487.81
2019-02-04T22:33:40.311Z,101488.53
2019-02-04T22:36:12.805Z,101486.62
2019-02-04T22:38:44.838Z,101486.27
2019-02-04T22:41:16.846Z,101487.75
2019-02-04T22:43:49.846Z,101486.78
2019-02-04T22:46:21.810Z,101490.52
2019-02-04T22:48:53.847Z,101492.50
2019-02-04T22:51:25.857Z,101485.45
2019-02-04T22:53:57.828Z,101486.39
2019-02-04T22:56:30.869Z,101483.69
2019-02-04T22:59:02.825Z,101487.94
2019-02-04T23:01:50.622Z,101483.19
2019-02-04T23:04:22.809Z,101479.94
2019-02-04T23:06:54.866Z,101479.94
2019-02-04T23:09:26.902Z,101482.20
2019-02-04T23:11:58.824Z,101479.34
2019-02-04T23:14:31.027Z,101477.31
2019-02-04T23:17:03.870Z,101480.75
2019-02-04T23:19:36.429Z,101475.52
2019-02-04T23:22:08.857Z,101479.35
2019-02-04T23:24:41.330Z,101472.00
2019-02-04T23:27:14.922Z,101477.92
2019-02-04T23:29:46.865Z,101478.33
2019-02-04T23:32:19.627Z,101480.81
2019-02-04T23:34:51.325Z,101466.53
2019-02-04T23:37:23.670Z,101474.89
2019-02-04T23:39:55.858Z,101478.38
2019-02-04T23:42:27.809Z,101478.38
2019-02-04T23:44:59.816Z,101478.44
2019-02-04T23:47:31.886Z,101469.58
2019-02-04T23:50:04.334Z,101470.75
2019-02-04T23:52:35.691Z,101461.34
2019-02-04T23:55:07.672Z,101459.92
2019-02-04T23:57:40.328Z,101456.58
